sensor_id;sensor_type;location;lat;lon;timestamp;P1;durP1;ratioP1;P2;durP2;ratioP2
22837;SDS011;11585;51.450;-0.240;2024-01-30T21:54:08;28.13;;;26.23;;
22837;SDS011;11585;51.450;-0.240;2024-01-30T21:56:34;28.38;;;26.48;;
22837;SDS011;11585;51.450;-0.240;2024-01-30T21:59:02;28.25;;;26.35;;
22837;SDS011;11585;51.450;-0.240;2024-01-30T22:01:29;26.92;;;25.13;;
22837;SDS011;11585;51.450;-0.240;2024-01-30T22:03:55;25.75;;;24.05;;
22837;SDS011;11585;51.450;-0.240;2024-01-30T22:06:20;27.25;;;25.35;;
22837;SDS011;11585;51.450;-0.240;2024-01-30T22:08:46;26.70;;;24.90;;
22837;SDS011;11585;51.450;-0.240;2024-01-30T22:11:12;26.80;;;25.00;;
22837;SDS011;11585;51.450;-0.240;2024-01-30T22:13:38;27.08;;;25.27;;
22837;SDS011;11585;51.450;-0.240;2024-01-30T22:16:04;26.08;;;24.38;;
22837;SDS011;11585;51.450;-0.240;2024-01-30T22:18:30;26.48;;;24.77;;
22837;SDS011;11585;51.450;-0.240;2024-01-30T22:23:44;26.15;;;24.45;;
22837;SDS011;11585;51.450;-0.240;2024-01-30T22:26:11;26.70;;;24.90;;
22837;SDS011;11585;51.450;-0.240;2024-01-30T22:28:36;26.67;;;24.88;;
22837;SDS011;11585;51.450;-0.240;2024-01-30T22:31:03;26.85;;;25.05;;
22837;SDS011;11585;51.450;-0.240;2024-01-30T22:33:29;26.70;;;24.90;;
22837;SDS011;11585;51.450;-0.240;2024-01-30T22:35:55;26.60;;;24.80;;
22837;SDS011;11585;51.450;-0.240;2024-01-30T22:38:20;26.70;;;24.90;;
22837;SDS011;11585;51.450;-0.240;2024-01-30T22:40:46;26.73;;;24.92;;
22837;SDS011;11585;51.450;-0.240;2024-01-30T22:43:12;26.63;;;24.83;;
22837;SDS011;11585;51.450;-0.240;2024-01-30T22:45:38;26.73;;;24.92;;
22837;SDS011;11585;51.450;-0.240;2024-01-30T22:48:04;26.23;;;24.45;;
22837;SDS011;11585;51.450;-0.240;2024-01-30T22:50:29;26.50;;;24.70;;
22837;SDS011;11585;51.450;-0.240;2024-01-30T22:52:55;26.25;;;24.52;;
22837;SDS011;11585;51.450;-0.240;2024-01-30T22:55:21;26.55;;;24.75;;
22837;SDS011;11585;51.450;-0.240;2024-01-30T22:57:47;26.25;;;24.45;;
22837;SDS011;11585;51.450;-0.240;2024-01-30T23:00:13;26.60;;;24.80;;
22837;SDS011;11585;51.450;-0.240;2024-01-30T23:02:50;26.63;;;24.83;;
22837;SDS011;11585;51.450;-0.240;2024-01-30T23:05:19;26.27;;;24.48;;
22837;SDS011;11585;51.450;-0.240;2024-01-30T23:07:45;26.42;;;24.63;;
22837;SDS011;11585;51.450;-0.240;2024-01-30T23:10:12;25.98;;;24.27;;
22837;SDS011;11585;51.450;-0.240;2024-01-30T23:12:38;26.48;;;24.75;;
22837;SDS011;11585;51.450;-0.240;2024-01-30T23:15:05;26.10;;;24.35;;
22837;SDS011;11585;51.450;-0.240;2024-01-30T23:17:31;25.92;;;24.23;;
22837;SDS011;11585;51.450;-0.240;2024-01-30T23:19:58;26.35;;;24.60;;
22837;SDS011;11585;51.450;-0.240;2024-01-30T23:22:27;26.23;;;24.42;;
22837;SDS011;11585;51.450;-0.240;2024-01-30T23:24:54;25.92;;;24.23;;
22837;SDS011;11585;51.450;-0.240;2024-01-30T23:27:19;26.30;;;24.50;;
22837;SDS011;11585;51.450;-0.240;2024-01-30T23:29:45;26.05;;;24.30;;
22837;SDS011;11585;51.450;-0.240;2024-01-30T23:35:18;26.35;;;24.55;;
22837;SDS011;11585;51.450;-0.240;2024-01-30T23:37:45;26.65;;;24.85;;
22837;SDS011;11585;51.450;-0.240;2024-01-30T23:40:13;27.02;;;25.23;;
22837;SDS011;11585;51.450;-0.240;2024-01-30T23:45:26;27.13;;;25.33;;
22837;SDS011;11585;51.450;-0.240;2024-01-30T23:47:52;26.67;;;24.88;;
22837;SDS011;11585;51.450;-0.240;2024-01-30T23:50:17;26.63;;;24.83;;
22837;SDS011;11585;51.450;-0.240;2024-01-30T23:52:43;26.35;;;24.55;;
22837;SDS011;11585;51.450;-0.240;2024-01-30T23:55:10;26.48;;;24.67;;
22837;SDS011;11585;51.450;-0.240;2024-01-30T23:57:40;26.50;;;24.70;;
